Terminal Aerodrome Forecast
Issued by NWS

Home | Current Version | Previous Version | Text Only | Print | Product List | Glossary On
Versions: 1 2 3 4 5 6 7 8 9 10 11 12 13 14 15 16 17 18
000
FTAK31 PANC 170522
TAFACD
TAF
PACD 170522Z 1706/1806 27015KT P6SM -SHRA BKN007 OVC014
     FM170800 28020G30KT 5SM -SHRA BR BKN006 OVC012
     FM171600 28025G38KT P6SM -SHRA BKN006 OVC012=

USA.gov is the U.S. government's official web portal to all federal, state and local government web resources and services.